Sterling, Michigan
Current Conditions -  °F | °C
As of 9:34 AM on Saturday 20 Dec 2014 (Local Time) from KIKW Reporting Station
Clear Clear  
Wind Chill: 17°   Ceiling: Unl
Heat Index: 17°   Visibility: 10mi
Dew Point: 15°   Wind: 0mph
Humidity: 93%   Direction: NA
Pressure: 30.31"   Gusts: NA
Location:  44.03°N, 84.02°W
Report Text: KIKW 201434Z AUTO 00000KT 10SM CLR M08/M09 A3031 RMK AO2 T10841094
Loading
Personal Weather Stations






























Interactive Weather Map New forecast layout! Learn more

10-Day Weather Forecast

Advertisements
Track Severe Weather on mobile